sensor_id;sensor_type;location;lat;lon;timestamp;P1;durP1;ratioP1;P2;durP2;ratioP2
21281;SDS011;10800;53.096;18.328;2023-02-02T00:01:36;4.70;;;2.00;;
21281;SDS011;10800;53.096;18.328;2023-02-02T00:06:41;2.87;;;1.27;;
21281;SDS011;10800;53.096;18.328;2023-02-02T00:11:48;1.87;;;1.00;;
21281;SDS011;10800;53.096;18.328;2023-02-02T00:16:55;11.90;;;1.57;;
21281;SDS011;10800;53.096;18.328;2023-02-02T00:22:01;2.10;;;0.83;;
21281;SDS011;10800;53.096;18.328;2023-02-02T00:27:07;3.00;;;1.33;;
21281;SDS011;10800;53.096;18.328;2023-02-02T00:32:13;2.00;;;0.80;;
21281;SDS011;10800;53.096;18.328;2023-02-02T00:37:18;2.20;;;0.80;;
21281;SDS011;10800;53.096;18.328;2023-02-02T00:42:24;9.90;;;1.43;;
21281;SDS011;10800;53.096;18.328;2023-02-02T00:47:29;0.50;;;0.50;;
21281;SDS011;10800;53.096;18.328;2023-02-02T00:52:35;10.43;;;1.17;;
21281;SDS011;10800;53.096;18.328;2023-02-02T00:57:40;7.00;;;1.23;;
21281;SDS011;10800;53.096;18.328;2023-02-02T01:02:46;2.63;;;1.37;;
21281;SDS011;10800;53.096;18.328;2023-02-02T01:07:52;3.73;;;2.00;;
21281;SDS011;10800;53.096;18.328;2023-02-02T01:12:57;4.63;;;0.50;;
21281;SDS011;10800;53.096;18.328;2023-02-02T01:18:02;1.60;;;0.93;;
21281;SDS011;10800;53.096;18.328;2023-02-02T01:23:08;3.60;;;0.83;;
21281;SDS011;10800;53.096;18.328;2023-02-02T01:28:13;6.17;;;1.67;;
21281;SDS011;10800;53.096;18.328;2023-02-02T01:33:19;10.60;;;1.40;;
21281;SDS011;10800;53.096;18.328;2023-02-02T01:38:24;9.43;;;1.17;;
21281;SDS011;10800;53.096;18.328;2023-02-02T01:49:12;5.03;;;1.13;;
21281;SDS011;10800;53.096;18.328;2023-02-02T01:54:14;4.73;;;1.40;;
21281;SDS011;10800;53.096;18.328;2023-02-02T01:59:20;3.97;;;0.97;;
21281;SDS011;10800;53.096;18.328;2023-02-02T02:04:28;0.70;;;0.70;;
21281;SDS011;10800;53.096;18.328;2023-02-02T02:09:34;9.43;;;2.03;;
21281;SDS011;10800;53.096;18.328;2023-02-02T02:14:42;0.80;;;0.80;;
21281;SDS011;10800;53.096;18.328;2023-02-02T02:20:13;3.47;;;0.80;;
21281;SDS011;10800;53.096;18.328;2023-02-02T02:37:15;2.07;;;0.80;;
21281;SDS011;10800;53.096;18.328;2023-02-02T02:42:29;4.30;;;0.90;;
21281;SDS011;10800;53.096;18.328;2023-02-02T02:47:37;4.70;;;0.93;;
21281;SDS011;10800;53.096;18.328;2023-02-02T02:52:45;5.17;;;0.87;;
21281;SDS011;10800;53.096;18.328;2023-02-02T02:58:03;0.53;;;0.50;;
21281;SDS011;10800;53.096;18.328;2023-02-02T03:03:45;0.97;;;0.40;;
21281;SDS011;10800;53.096;18.328;2023-02-02T03:08:54;2.60;;;0.97;;
21281;SDS011;10800;53.096;18.328;2023-02-02T03:14:02;10.63;;;0.70;;
21281;SDS011;10800;53.096;18.328;2023-02-02T03:19:10;1.07;;;0.67;;
21281;SDS011;10800;53.096;18.328;2023-02-02T03:24:15;0.63;;;0.63;;
21281;SDS011;10800;53.096;18.328;2023-02-02T03:29:21;9.83;;;1.57;;
21281;SDS011;10800;53.096;18.328;2023-02-02T03:34:26;2.13;;;0.90;;
21281;SDS011;10800;53.096;18.328;2023-02-02T03:39:31;1.57;;;0.90;;
21281;SDS011;10800;53.096;18.328;2023-02-02T03:44:37;1.23;;;0.53;;
21281;SDS011;10800;53.096;18.328;2023-02-02T03:49:42;1.23;;;0.97;;
21281;SDS011;10800;53.096;18.328;2023-02-02T03:54:48;6.87;;;1.20;;
21281;SDS011;10800;53.096;18.328;2023-02-02T03:59:54;1.30;;;1.17;;
21281;SDS011;10800;53.096;18.328;2023-02-02T04:04:59;5.20;;;0.47;;
21281;SDS011;10800;53.096;18.328;2023-02-02T04:10:04;0.97;;;0.80;;
21281;SDS011;10800;53.096;18.328;2023-02-02T04:15:10;2.73;;;0.70;;
21281;SDS011;10800;53.096;18.328;2023-02-02T04:20:16;7.93;;;1.13;;
21281;SDS011;10800;53.096;18.328;2023-02-02T04:25:21;0.77;;;0.40;;
21281;SDS011;10800;53.096;18.328;2023-02-02T04:30:27;0.20;;;0.20;;
21281;SDS011;10800;53.096;18.328;2023-02-02T04:35:33;1.07;;;0.70;;
21281;SDS011;10800;53.096;18.328;2023-02-02T04:40:38;1.33;;;0.40;;
21281;SDS011;10800;53.096;18.328;2023-02-02T04:45:46;0.20;;;0.20;;
21281;SDS011;10800;53.096;18.328;2023-02-02T04:50:59;0.43;;;0.37;;
21281;SDS011;10800;53.096;18.328;2023-02-02T04:56:06;0.30;;;0.30;;
21281;SDS011;10800;53.096;18.328;2023-02-02T05:01:16;0.23;;;0.23;;
21281;SDS011;10800;53.096;18.328;2023-02-02T05:06:23;0.60;;;0.60;;
21281;SDS011;10800;53.096;18.328;2023-02-02T05:11:29;0.30;;;0.30;;
21281;SDS011;10800;53.096;18.328;2023-02-02T05:16:34;1.60;;;0.30;;
21281;SDS011;10800;53.096;18.328;2023-02-02T05:21:40;1.07;;;0.63;;
21281;SDS011;10800;53.096;18.328;2023-02-02T05:27:01;1.50;;;0.40;;
21281;SDS011;10800;53.096;18.328;2023-02-02T05:32:52;4.30;;;1.43;;
21281;SDS011;10800;53.096;18.328;2023-02-02T05:43:53;21.67;;;1.20;;
21281;SDS011;10800;53.096;18.328;2023-02-02T06:00:47;1.83;;;1.67;;
21281;SDS011;10800;53.096;18.328;2023-02-02T06:06:06;0.60;;;0.60;;
21281;SDS011;10800;53.096;18.328;2023-02-02T06:11:22;1.63;;;1.20;;
21281;SDS011;10800;53.096;18.328;2023-02-02T06:16:34;3.83;;;1.70;;
21281;SDS011;10800;53.096;18.328;2023-02-02T06:21:46;5.10;;;1.10;;
21281;SDS011;10800;53.096;18.328;2023-02-02T06:26:50;3.90;;;2.00;;
21281;SDS011;10800;53.096;18.328;2023-02-02T06:32:00;6.73;;;2.80;;
21281;SDS011;10800;53.096;18.328;2023-02-02T06:37:06;17.13;;;5.87;;
21281;SDS011;10800;53.096;18.328;2023-02-02T06:42:15;13.80;;;5.33;;
21281;SDS011;10800;53.096;18.328;2023-02-02T06:47:22;18.03;;;7.47;;
21281;SDS011;10800;53.096;18.328;2023-02-02T06:52:30;2.47;;;1.27;;
21281;SDS011;10800;53.096;18.328;2023-02-02T06:57:37;1.83;;;1.27;;
21281;SDS011;10800;53.096;18.328;2023-02-02T07:03:00;1.23;;;1.00;;
21281;SDS011;10800;53.096;18.328;2023-02-02T07:08:14;0.87;;;0.87;;
21281;SDS011;10800;53.096;18.328;2023-02-02T07:13:47;0.60;;;0.60;;
21281;SDS011;10800;53.096;18.328;2023-02-02T07:19:03;0.60;;;0.60;;
21281;SDS011;10800;53.096;18.328;2023-02-02T07:24:23;1.73;;;0.70;;
21281;SDS011;10800;53.096;18.328;2023-02-02T07:29:43;1.00;;;0.90;;
21281;SDS011;10800;53.096;18.328;2023-02-02T07:35:35;1.63;;;0.97;;
21281;SDS011;10800;53.096;18.328;2023-02-02T07:41:20;4.03;;;1.00;;
21281;SDS011;10800;53.096;18.328;2023-02-02T07:46:39;1.50;;;0.90;;
21281;SDS011;10800;53.096;18.328;2023-02-02T07:52:10;2.83;;;1.30;;
21281;SDS011;10800;53.096;18.328;2023-02-02T08:03:49;6.20;;;1.47;;
21281;SDS011;10800;53.096;18.328;2023-02-02T08:09:37;6.07;;;2.17;;
21281;SDS011;10800;53.096;18.328;2023-02-02T08:15:17;25.30;;;6.23;;
21281;SDS011;10800;53.096;18.328;2023-02-02T08:32:29;18.30;;;9.07;;
21281;SDS011;10800;53.096;18.328;2023-02-02T08:38:16;10.33;;;3.27;;
21281;SDS011;10800;53.096;18.328;2023-02-02T08:43:30;41.07;;;10.37;;
21281;SDS011;10800;53.096;18.328;2023-02-02T08:48:37;27.00;;;7.40;;
21281;SDS011;10800;53.096;18.328;2023-02-02T08:53:44;27.67;;;8.57;;
21281;SDS011;10800;53.096;18.328;2023-02-02T08:58:54;25.83;;;7.07;;
21281;SDS011;10800;53.096;18.328;2023-02-02T09:04:37;38.97;;;8.43;;
21281;SDS011;10800;53.096;18.328;2023-02-02T09:09:52;24.77;;;7.57;;
21281;SDS011;10800;53.096;18.328;2023-02-02T09:15:09;15.57;;;4.07;;
21281;SDS011;10800;53.096;18.328;2023-02-02T09:20:20;35.40;;;6.27;;
21281;SDS011;10800;53.096;18.328;2023-02-02T09:25:28;4.77;;;2.83;;
21281;SDS011;10800;53.096;18.328;2023-02-02T09:30:38;10.50;;;3.53;;
21281;SDS011;10800;53.096;18.328;2023-02-02T09:35:50;6.00;;;1.70;;
21281;SDS011;10800;53.096;18.328;2023-02-02T09:40:57;15.43;;;3.53;;
21281;SDS011;10800;53.096;18.328;2023-02-02T09:46:23;9.93;;;2.17;;
21281;SDS011;10800;53.096;18.328;2023-02-02T09:51:36;10.90;;;3.73;;
21281;SDS011;10800;53.096;18.328;2023-02-02T09:56:43;6.23;;;2.80;;
21281;SDS011;10800;53.096;18.328;2023-02-02T10:01:58;16.23;;;4.30;;
21281;SDS011;10800;53.096;18.328;2023-02-02T10:07:25;8.27;;;3.03;;
21281;SDS011;10800;53.096;18.328;2023-02-02T10:13:01;3.43;;;1.90;;
21281;SDS011;10800;53.096;18.328;2023-02-02T10:18:25;6.07;;;3.03;;
21281;SDS011;10800;53.096;18.328;2023-02-02T10:29:36;5.50;;;3.03;;
21281;SDS011;10800;53.096;18.328;2023-02-02T10:47:14;3.90;;;2.63;;
21281;SDS011;10800;53.096;18.328;2023-02-02T10:52:57;9.27;;;3.63;;
21281;SDS011;10800;53.096;18.328;2023-02-02T11:04:08;4.93;;;2.63;;
21281;SDS011;10800;53.096;18.328;2023-02-02T11:09:39;4.23;;;1.83;;
21281;SDS011;10800;53.096;18.328;2023-02-02T11:20:31;9.80;;;4.70;;
21281;SDS011;10800;53.096;18.328;2023-02-02T11:25:41;7.47;;;2.87;;
21281;SDS011;10800;53.096;18.328;2023-02-02T11:30:48;12.03;;;5.90;;
21281;SDS011;10800;53.096;18.328;2023-02-02T11:36:04;10.60;;;2.67;;
21281;SDS011;10800;53.096;18.328;2023-02-02T11:41:12;8.33;;;3.63;;
21281;SDS011;10800;53.096;18.328;2023-02-02T11:46:21;7.33;;;4.33;;
21281;SDS011;10800;53.096;18.328;2023-02-02T11:52:01;4.90;;;3.00;;
21281;SDS011;10800;53.096;18.328;2023-02-02T11:57:33;3.93;;;2.03;;
21281;SDS011;10800;53.096;18.328;2023-02-02T12:08:18;1.23;;;0.63;;
21281;SDS011;10800;53.096;18.328;2023-02-02T12:13:39;12.83;;;2.90;;
21281;SDS011;10800;53.096;18.328;2023-02-02T12:24:23;13.23;;;4.07;;
21281;SDS011;10800;53.096;18.328;2023-02-02T13:08:05;3.33;;;2.13;;
21281;SDS011;10800;53.096;18.328;2023-02-02T13:13:19;10.80;;;3.37;;
21281;SDS011;10800;53.096;18.328;2023-02-02T13:18:29;5.17;;;1.73;;
21281;SDS011;10800;53.096;18.328;2023-02-02T13:23:43;4.57;;;2.20;;
21281;SDS011;10800;53.096;18.328;2023-02-02T13:28:51;3.67;;;1.40;;
21281;SDS011;10800;53.096;18.328;2023-02-02T13:39:39;7.53;;;2.37;;
21281;SDS011;10800;53.096;18.328;2023-02-02T13:50:02;2.30;;;1.27;;
21281;SDS011;10800;53.096;18.328;2023-02-02T14:00:52;5.20;;;1.73;;
21281;SDS011;10800;53.096;18.328;2023-02-02T14:06:07;7.30;;;2.60;;
21281;SDS011;10800;53.096;18.328;2023-02-02T14:11:29;5.57;;;1.70;;
21281;SDS011;10800;53.096;18.328;2023-02-02T14:16:50;6.47;;;3.37;;
21281;SDS011;10800;53.096;18.328;2023-02-02T14:21:59;2.60;;;1.40;;
21281;SDS011;10800;53.096;18.328;2023-02-02T14:54:04;4.27;;;2.83;;
21281;SDS011;10800;53.096;18.328;2023-02-02T14:59:22;6.23;;;2.37;;
21281;SDS011;10800;53.096;18.328;2023-02-02T15:04:35;9.57;;;3.13;;
21281;SDS011;10800;53.096;18.328;2023-02-02T15:09:47;4.87;;;2.37;;
21281;SDS011;10800;53.096;18.328;2023-02-02T15:15:11;4.37;;;2.03;;
21281;SDS011;10800;53.096;18.328;2023-02-02T15:20:28;2.53;;;1.53;;
21281;SDS011;10800;53.096;18.328;2023-02-02T15:26:16;4.73;;;2.83;;
21281;SDS011;10800;53.096;18.328;2023-02-02T15:36:32;1.37;;;0.90;;
21281;SDS011;10800;53.096;18.328;2023-02-02T15:41:44;10.73;;;3.57;;
21281;SDS011;10800;53.096;18.328;2023-02-02T15:46:53;9.37;;;3.80;;
21281;SDS011;10800;53.096;18.328;2023-02-02T15:52:41;7.30;;;1.83;;
21281;SDS011;10800;53.096;18.328;2023-02-02T15:57:25;15.03;;;3.60;;
21281;SDS011;10800;53.096;18.328;2023-02-02T16:02:38;7.90;;;3.23;;
21281;SDS011;10800;53.096;18.328;2023-02-02T16:08:28;7.17;;;2.30;;
21281;SDS011;10800;53.096;18.328;2023-02-02T16:14:02;22.73;;;7.83;;
21281;SDS011;10800;53.096;18.328;2023-02-02T16:19:14;4.77;;;1.77;;
21281;SDS011;10800;53.096;18.328;2023-02-02T16:24:28;16.23;;;7.77;;
21281;SDS011;10800;53.096;18.328;2023-02-02T16:29:36;37.07;;;9.97;;
21281;SDS011;10800;53.096;18.328;2023-02-02T16:34:58;8.97;;;3.33;;
21281;SDS011;10800;53.096;18.328;2023-02-02T16:40:27;11.47;;;3.30;;
21281;SDS011;10800;53.096;18.328;2023-02-02T16:51:15;22.13;;;6.63;;
21281;SDS011;10800;53.096;18.328;2023-02-02T16:56:27;27.10;;;6.10;;
21281;SDS011;10800;53.096;18.328;2023-02-02T17:01:34;9.83;;;3.17;;
21281;SDS011;10800;53.096;18.328;2023-02-02T17:06:41;18.93;;;5.87;;
21281;SDS011;10800;53.096;18.328;2023-02-02T17:11:53;6.00;;;3.17;;
21281;SDS011;10800;53.096;18.328;2023-02-02T17:17:05;16.63;;;4.20;;
21281;SDS011;10800;53.096;18.328;2023-02-02T17:22:12;19.67;;;5.30;;
21281;SDS011;10800;53.096;18.328;2023-02-02T17:27:32;19.37;;;6.53;;
21281;SDS011;10800;53.096;18.328;2023-02-02T17:32:51;22.40;;;8.43;;
21281;SDS011;10800;53.096;18.328;2023-02-02T17:37:56;56.40;;;17.30;;
21281;SDS011;10800;53.096;18.328;2023-02-02T17:43:04;14.03;;;5.90;;
21281;SDS011;10800;53.096;18.328;2023-02-02T17:48:11;23.37;;;7.90;;
21281;SDS011;10800;53.096;18.328;2023-02-02T17:53:26;22.27;;;7.27;;
21281;SDS011;10800;53.096;18.328;2023-02-02T17:58:36;40.60;;;11.07;;
21281;SDS011;10800;53.096;18.328;2023-02-02T18:03:42;33.63;;;12.37;;
21281;SDS011;10800;53.096;18.328;2023-02-02T18:08:50;31.30;;;9.47;;
21281;SDS011;10800;53.096;18.328;2023-02-02T18:13:55;17.07;;;5.80;;
21281;SDS011;10800;53.096;18.328;2023-02-02T18:19:00;15.03;;;3.77;;
21281;SDS011;10800;53.096;18.328;2023-02-02T18:24:27;16.00;;;4.10;;
21281;SDS011;10800;53.096;18.328;2023-02-02T18:29:29;7.30;;;2.63;;
21281;SDS011;10800;53.096;18.328;2023-02-02T18:34:34;5.07;;;2.23;;
21281;SDS011;10800;53.096;18.328;2023-02-02T18:39:42;2.13;;;1.60;;
21281;SDS011;10800;53.096;18.328;2023-02-02T18:44:51;11.13;;;3.77;;
21281;SDS011;10800;53.096;18.328;2023-02-02T18:49:56;20.60;;;5.80;;
21281;SDS011;10800;53.096;18.328;2023-02-02T18:55:09;43.57;;;14.87;;
21281;SDS011;10800;53.096;18.328;2023-02-02T19:00:15;28.90;;;8.67;;
21281;SDS011;10800;53.096;18.328;2023-02-02T19:05:27;28.73;;;8.97;;
21281;SDS011;10800;53.096;18.328;2023-02-02T19:10:57;18.10;;;4.57;;
21281;SDS011;10800;53.096;18.328;2023-02-02T19:15:58;8.10;;;3.30;;
21281;SDS011;10800;53.096;18.328;2023-02-02T19:21:05;12.23;;;5.03;;
21281;SDS011;10800;53.096;18.328;2023-02-02T19:26:22;20.03;;;8.53;;
21281;SDS011;10800;53.096;18.328;2023-02-02T19:31:29;5.97;;;2.00;;
21281;SDS011;10800;53.096;18.328;2023-02-02T19:36:35;9.50;;;3.70;;
21281;SDS011;10800;53.096;18.328;2023-02-02T19:41:40;4.67;;;3.10;;
21281;SDS011;10800;53.096;18.328;2023-02-02T19:46:48;27.03;;;11.77;;
21281;SDS011;10800;53.096;18.328;2023-02-02T19:51:56;47.87;;;16.03;;
21281;SDS011;10800;53.096;18.328;2023-02-02T19:57:15;45.63;;;10.63;;
21281;SDS011;10800;53.096;18.328;2023-02-02T20:02:42;36.20;;;7.27;;
21281;SDS011;10800;53.096;18.328;2023-02-02T20:13:43;10.53;;;3.63;;
21281;SDS011;10800;53.096;18.328;2023-02-02T20:18:54;1.27;;;1.17;;
21281;SDS011;10800;53.096;18.328;2023-02-02T20:24:01;2.90;;;1.63;;
21281;SDS011;10800;53.096;18.328;2023-02-02T20:29:16;112.83;;;20.37;;
21281;SDS011;10800;53.096;18.328;2023-02-02T20:34:25;12.20;;;4.97;;
21281;SDS011;10800;53.096;18.328;2023-02-02T20:39:36;9.97;;;3.23;;
21281;SDS011;10800;53.096;18.328;2023-02-02T20:44:45;71.83;;;20.47;;
21281;SDS011;10800;53.096;18.328;2023-02-02T20:49:51;103.03;;;23.60;;
21281;SDS011;10800;53.096;18.328;2023-02-02T20:54:56;57.43;;;16.00;;
21281;SDS011;10800;53.096;18.328;2023-02-02T21:00:02;24.87;;;8.10;;
21281;SDS011;10800;53.096;18.328;2023-02-02T21:05:10;6.67;;;3.67;;
21281;SDS011;10800;53.096;18.328;2023-02-02T21:10:15;6.73;;;2.73;;
21281;SDS011;10800;53.096;18.328;2023-02-02T21:15:21;5.93;;;2.57;;
21281;SDS011;10800;53.096;18.328;2023-02-02T21:20:28;8.27;;;3.50;;
21281;SDS011;10800;53.096;18.328;2023-02-02T21:30:45;11.50;;;4.17;;
21281;SDS011;10800;53.096;18.328;2023-02-02T21:35:51;8.33;;;3.77;;
21281;SDS011;10800;53.096;18.328;2023-02-02T21:40:57;10.80;;;5.50;;
21281;SDS011;10800;53.096;18.328;2023-02-02T21:46:03;13.13;;;4.80;;
21281;SDS011;10800;53.096;18.328;2023-02-02T21:51:31;7.53;;;3.23;;
21281;SDS011;10800;53.096;18.328;2023-02-02T22:08:08;4.97;;;1.77;;
21281;SDS011;10800;53.096;18.328;2023-02-02T22:13:20;2.63;;;2.07;;
21281;SDS011;10800;53.096;18.328;2023-02-02T22:25:34;4.37;;;2.10;;
21281;SDS011;10800;53.096;18.328;2023-02-02T22:31:12;4.73;;;2.60;;
21281;SDS011;10800;53.096;18.328;2023-02-02T22:36:56;3.70;;;2.87;;
21281;SDS011;10800;53.096;18.328;2023-02-02T22:49:23;7.90;;;3.70;;
21281;SDS011;10800;53.096;18.328;2023-02-02T23:06:22;8.10;;;3.47;;
21281;SDS011;10800;53.096;18.328;2023-02-02T23:11:49;13.73;;;2.93;;
21281;SDS011;10800;53.096;18.328;2023-02-02T23:17:23;18.10;;;9.03;;
21281;SDS011;10800;53.096;18.328;2023-02-02T23:23:00;5.50;;;4.03;;
21281;SDS011;10800;53.096;18.328;2023-02-02T23:28:45;9.73;;;4.53;;
21281;SDS011;10800;53.096;18.328;2023-02-02T23:34:10;10.60;;;4.73;;
21281;SDS011;10800;53.096;18.328;2023-02-02T23:39:33;14.77;;;6.90;;
21281;SDS011;10800;53.096;18.328;2023-02-02T23:44:58;12.27;;;6.07;;
21281;SDS011;10800;53.096;18.328;2023-02-02T23:50:10;15.40;;;5.27;;
21281;SDS011;10800;53.096;18.328;2023-02-02T23:55:19;8.97;;;3.90;;
